メインページ
METAR-TAF:

METAR-TAF

空港 :

ウォータータウン, ニューヨーク, アメリカ合衆国

緯度: 43-59-31N, 経度: 076-01-18W, 海抜: 99m

現時点の気象観測

当レポートは23分前の10:11(UTC)に作成
北/北西の風 4kt
気温 -12°C
湿度 66%
気圧 1018 hPa
視程: 16.1km
高度2800ftの雲は散在している
高度3500ftの曇り

METAR: KART 231011Z AUTO 34004KT 10SM SCT028 OVC035 M12/M17 A3005 RMK AO2 T11221167

時間: 05:34 (10:34 UTC)

予報

当レポートは1時間57分前の08:37(UTC)に作成
予報は23日の 09時(UTC)から 24日の 06時(UTC)まで有効
北/北西の風 8kt
視程: 10km
高度4000ftの千切れ雲あり
23日の 1700時(UTC)から
西/北西の風 10kt
視程: 10km
高度4000ftの雲は散在している
24日の 0000時(UTC)から
西/北西の風 5kt
視程: 10km
晴天

TAF: KART 230837Z 2309/2406 34008KT P6SM BKN040 FM231700 30010KT P6SM SCT040 FM240000 30005KT P6SM SKC

4,000以上の空港の気象観測と天気予報(METAR報とTAF報)

利用可能な観測所は地図上に黄色い丸と赤い丸で示す。

丸の上にカーソルを重ねると観測所名を参照できる。

次にクリックすると気象観測と天気予報を参照できる。

マップの切り替え:黒色「×」印の緑ボタンをクリックして拡大、「-」印の緑ボタンをクリックして縮小、緑色の三角印をクリックして隣りの地図に切り替え


METAR-TAF: